KNUQ/NUQ METAR and TAF weather

Enter ICAO airport designator
Station Type Date Time Source
KNUQ METAR 2021/01/17 18:35 UTC NOAA

KNUQ 171835Z AUTO 00000KT 10SM CLR 20/03 A3015 RMK AO2


Station Type Date Time Source
KNUQ Decoded METAR 2021/01/17 18:35 UTC NOAA

MOFFETT FIELD, CA, United States (KNUQ) 37-26N 122-03W 19M
Jan 17, 2021 - 01:35 PM EST / 2021.01.17 1835 UTC
Wind: Calm:0
Visibility: 10 mile(s):0
Sky conditions: clear
Temperature: 68 F (20 C)
Dew Point: 37 F (3 C)
Relative Humidity: 32%
Pressure (altimeter): 30.15 in. Hg (1020 hPa)
ob: KNUQ 171835Z AUTO 00000KT 10SM CLR 20/03 A3015 RMK AO2
cycle: 18

Station Type Date Time Source
KNUQ TAF 2018/01/28 15:27 UTC NOAA

TAF COR KNUQ 2815/2915 14012G22KT 9999 SCT020 BKN035 BKN050 BKN120 650509 651406 540009 540909 QNH3017INS
TEMPO 2816/2822 14018G30KT 8000 -SHRA BKN015 OVC030
FM282200 14020G32KT 9999 SCT020 BKN050 BKN120 650509 651406 540009 540909 QNH3009INS
TEMPO 2909/2915 8000 -SHRA BKN015 OVC040 T08/2915Z T12/2922Z COR 1523 FS30085

Example: see airport list